Arago, Minnesota
Current Conditions -  °F | °C
As of 10:53 PM on Thursday 30 Oct 2014 (Local Time) from KPKD Reporting Station
Broken Clouds Broken Clouds  
Wind Chill: 16°   Ceiling: 4000
Heat Index: 27°   Visibility: 10mi
Dew Point: 17°   Wind: 13mph
Humidity: 66%   Direction: 340°NNW
Pressure: 30.44"   Gusts: NA
Location:  46.9966°N, 95.0029°W
Report Text: KPKD 310353Z AUTO 34011KT 10SM BKN040 M03/M08 A3044 RMK AO2 SLP327 T10281083 TSNO
Loading
Personal Weather Stations






























Interactive Weather Map
Tropical Storm Tracking
New forecast layout! Learn more

10-Day Weather Forecast

Advertisements
Track Severe Weather on mobile